Time;durP1;ratioP1;P1;durP2;ratioP2;P2;SDS_P1;SDS_P2;PMS_P1;PMS_P2;Temp;Humidity;BMP_temperature;BMP_pressure;BME280_temperature;BME280_humidity;BME280_pressure;Samples;Min_cycle;Max_cycle;Signal;HPM_P1;HPM_P2
2022/10/26 00:00:29;;;;;;;6.75;5.53;;;10.60;99.90;;;;;;5054789;28;20123;-81
2022/10/26 00:02:55;;;;;;;6.68;5.18;;;10.60;99.90;;;;;;5052484;28;20097;-82
2022/10/26 00:05:22;;;;;;;6.57;5.35;;;10.60;99.90;;;;;;5052694;28;20179;-83
2022/10/26 00:07:49;;;;;;;9.13;6.13;;;10.50;99.90;;;;;;5055032;28;20484;-81
2022/10/26 00:10:14;;;;;;;5.90;5.32;;;10.50;99.90;;;;;;5057603;28;20048;-81
2022/10/26 00:12:40;;;;;;;8.15;6.38;;;10.50;99.90;;;;;;5055777;28;20044;-82
2022/10/26 00:15:06;;;;;;;9.70;7.60;;;10.40;99.90;;;;;;5045982;28;20053;-82
2022/10/26 00:17:32;;;;;;;8.75;5.82;;;10.40;99.90;;;;;;5055090;28;20624;-81
2022/10/26 00:19:59;;;;;;;11.07;6.68;;;10.40;99.90;;;;;;5061996;28;20155;-82
2022/10/26 00:22:25;;;;;;;10.32;7.18;;;10.40;99.90;;;;;;5061112;28;20052;-83
2022/10/26 00:24:51;;;;;;;9.77;5.75;;;10.40;99.90;;;;;;5062166;28;20041;-81
2022/10/26 00:27:17;;;;;;;5.95;5.35;;;10.40;99.90;;;;;;5057950;28;20040;-82
2022/10/26 00:29:43;;;;;;;8.32;5.70;;;10.30;99.90;;;;;;5060012;28;20053;-82
2022/10/26 00:32:08;;;;;;;8.02;5.80;;;10.40;99.90;;;;;;5060251;28;20109;-81
2022/10/26 00:34:34;;;;;;;5.65;4.97;;;10.40;99.90;;;;;;5059278;28;20127;-82
2022/10/26 00:36:59;;;;;;;7.72;6.22;;;10.30;99.90;;;;;;5059392;28;20067;-82
2022/10/26 00:39:25;;;;;;;7.82;6.10;;;10.40;99.90;;;;;;5061638;28;20048;-82
2022/10/26 00:41:51;;;;;;;18.58;5.82;;;10.40;99.90;;;;;;5060106;28;20051;-82
2022/10/26 00:44:42;;;;;;;9.90;7.13;;;10.30;99.90;;;;;;5061428;28;20127;-82
2022/10/26 00:47:32;;;;;;;6.85;4.63;;;10.30;99.90;;;;;;5060414;28;20059;-81
2022/10/26 00:50:03;;;;;;;9.02;6.45;;;10.40;99.90;;;;;;5059206;28;20131;-81
2022/10/26 00:52:29;;;;;;;11.10;7.25;;;10.30;99.90;;;;;;5059815;28;21090;-80
2022/10/26 00:54:55;;;;;;;10.20;7.10;;;10.30;99.90;;;;;;5059664;28;20223;-82
2022/10/26 00:57:21;;;;;;;12.35;7.35;;;10.30;99.90;;;;;;5060220;28;20752;-80
2022/10/26 00:59:50;;;;;;;10.95;7.32;;;10.30;99.90;;;;;;5053500;28;20044;-81
2022/10/26 01:02:16;;;;;;;10.80;7.75;;;10.10;99.90;;;;;;5060183;28;20055;-81
2022/10/26 01:04:44;;;;;;;10.48;7.30;;;10.20;99.90;;;;;;5059405;28;20048;-82
2022/10/26 01:07:11;;;;;;;14.38;8.45;;;10.20;99.90;;;;;;5058639;28;20053;-82
2022/10/26 01:09:37;;;;;;;10.80;8.02;;;10.20;99.90;;;;;;5059469;28;20051;-83
2022/10/26 01:12:03;;;;;;;10.73;8.27;;;10.10;99.90;;;;;;5060053;28;20587;-83
2022/10/26 01:14:29;;;;;;;10.85;7.80;;;10.10;99.90;;;;;;5058454;28;20048;-83
2022/10/26 01:17:06;;;;;;;13.48;8.18;;;10.00;99.90;;;;;;5060277;28;20834;-82
2022/10/26 01:20:02;;;;;;;9.80;7.57;;;10.00;99.90;;;;;;5060830;28;20048;-81
2022/10/26 01:22:36;;;;;;;11.10;7.82;;;10.00;99.90;;;;;;5049341;28;20904;-81
2022/10/26 01:25:39;;;;;;;10.48;7.85;;;9.90;99.90;;;;;;5058097;28;20795;-81
2022/10/26 01:28:29;;;;;;;10.07;7.63;;;9.80;99.90;;;;;;5048626;28;20159;-79
2022/10/26 01:31:00;;;;;;;10.68;8.45;;;9.80;99.90;;;;;;5056462;28;20090;-82
2022/10/26 01:33:33;;;;;;;10.00;7.72;;;9.80;99.90;;;;;;5058940;28;20139;-81
2022/10/26 01:36:09;;;;;;;8.90;7.53;;;10.40;99.90;;;;;;5058308;28;20037;-80
2022/10/26 01:38:46;;;;;;;10.57;7.82;;;9.70;99.90;;;;;;5059323;28;20084;-81
2022/10/26 01:41:28;;;;;;;9.02;8.10;;;9.70;99.90;;;;;;5059650;28;20045;-82
2022/10/26 01:43:58;;;;;;;11.40;7.80;;;9.70;99.90;;;;;;5058582;28;20794;-79
2022/10/26 01:46:26;;;;;;;12.50;8.90;;;9.70;99.90;;;;;;5059322;28;20105;-81
2022/10/26 01:48:57;;;;;;;10.23;6.82;;;9.70;99.90;;;;;;5059638;28;20660;-83
2022/10/26 01:51:24;;;;;;;14.15;7.65;;;9.60;99.90;;;;;;5058097;28;20130;-81
2022/10/26 01:53:49;;;;;;;12.43;8.02;;;9.60;99.90;;;;;;5058208;28;20060;-79
2022/10/26 01:56:24;;;;;;;11.75;8.30;;;9.70;99.90;;;;;;5056887;28;20045;-82
2022/10/26 01:59:05;;;;;;;11.85;9.75;;;9.60;99.90;;;;;;5051768;28;20040;-81
2022/10/26 02:01:47;;;;;;;14.07;8.85;;;9.60;99.90;;;;;;5059617;28;20047;-81
2022/10/26 02:04:31;;;;;;;11.55;9.52;;;9.60;99.90;;;;;;5058679;28;20421;-82
2022/10/26 02:07:09;;;;;;;13.00;9.65;;;9.60;99.90;;;;;;5059451;28;20055;-82
2022/10/26 02:09:51;;;;;;;15.52;9.77;;;9.60;99.90;;;;;;5052988;28;20060;-81
2022/10/26 02:12:23;;;;;;;11.60;10.10;;;9.60;99.90;;;;;;5050087;28;20052;-79
2022/10/26 02:15:12;;;;;;;10.60;8.30;;;9.60;99.90;;;;;;5050638;28;20335;-81
2022/10/26 02:17:49;;;;;;;11.40;9.13;;;9.70;99.90;;;;;;5042660;28;20053;-79
2022/10/26 02:20:27;;;;;;;15.90;9.10;;;9.70;99.90;;;;;;5051986;28;20513;-82
2022/10/26 02:22:54;;;;;;;12.07;8.52;;;9.70;99.90;;;;;;5052411;28;20147;-82
2022/10/26 02:25:26;;;;;;;11.70;8.82;;;9.70;99.90;;;;;;5057437;28;20105;-82
2022/10/26 02:28:09;;;;;;;12.50;8.52;;;9.90;99.90;;;;;;5056794;28;20076;-82
2022/10/26 02:30:37;;;;;;;10.25;8.82;;;9.60;99.90;;;;;;5057616;28;20842;-82
2022/10/26 02:33:05;;;;;;;10.80;8.55;;;9.60;99.90;;;;;;5057174;28;20204;-81
2022/10/26 02:35:35;;;;;;;10.57;8.75;;;9.60;99.90;;;;;;5058568;28;20138;-83
2022/10/26 02:38:04;;;;;;;13.13;8.88;;;9.60;99.90;;;;;;5046147;28;20196;-83
2022/10/26 02:40:32;;;;;;;13.77;8.85;;;9.60;99.90;;;;;;5046093;28;20045;-82
2022/10/26 02:43:03;;;;;;;9.75;8.30;;;9.60;99.90;;;;;;5053699;28;20045;-79
2022/10/26 02:45:36;;;;;;;11.77;9.50;;;9.60;99.90;;;;;;5054893;28;20097;-83
2022/10/26 02:48:02;;;;;;;11.20;7.65;;;9.50;99.90;;;;;;5049485;28;20104;-80
2022/10/26 02:50:34;;;;;;;12.00;8.00;;;9.50;99.90;;;;;;5059673;28;20048;-82
2022/10/26 02:53:16;;;;;;;13.93;9.93;;;9.50;99.90;;;;;;5051912;28;20142;-80
2022/10/26 02:55:51;;;;;;;12.80;9.65;;;9.50;99.90;;;;;;5048941;28;20293;-83
2022/10/26 02:58:28;;;;;;;16.92;10.10;;;9.50;99.90;;;;;;5058823;28;20417;-83
2022/10/26 03:00:54;;;;;;;12.57;9.15;;;9.40;99.90;;;;;;5057546;28;20477;-80
2022/10/26 03:03:20;;;;;;;11.20;8.52;;;9.40;99.90;;;;;;5058526;28;20060;-79
2022/10/26 03:05:46;;;;;;;13.75;9.60;;;9.40;99.90;;;;;;5057085;28;20067;-82
2022/10/26 03:08:12;;;;;;;11.82;10.02;;;9.30;99.90;;;;;;5058117;28;20127;-82
2022/10/26 03:10:43;;;;;;;13.65;10.18;;;9.30;99.90;;;;;;5057160;28;20041;-82
2022/10/26 03:13:10;;;;;;;11.43;9.90;;;9.40;99.90;;;;;;5055212;28;20052;-83
2022/10/26 03:15:36;;;;;;;10.43;9.38;;;9.30;99.90;;;;;;5057873;28;20482;-82
2022/10/26 03:18:03;;;;;;;14.48;10.45;;;9.50;99.90;;;;;;5056806;28;20059;-80
2022/10/26 03:20:28;;;;;;;14.23;10.40;;;9.30;99.90;;;;;;5055849;28;20055;-81
2022/10/26 03:22:55;;;;;;;11.73;9.07;;;9.30;99.90;;;;;;5056874;28;20044;-82
2022/10/26 03:25:22;;;;;;;11.77;9.52;;;9.30;99.90;;;;;;5057624;28;20052;-81
2022/10/26 03:27:58;;;;;;;11.98;8.00;;;9.30;99.90;;;;;;5055787;28;20452;-82
2022/10/26 03:30:25;;;;;;;19.30;11.80;;;9.30;99.90;;;;;;5056223;28;20049;-82
2022/10/26 03:32:51;;;;;;;17.52;11.85;;;9.30;99.90;;;;;;5054357;28;20043;-80
2022/10/26 03:35:17;;;;;;;17.13;12.40;;;9.40;99.90;;;;;;5057801;28;20068;-82
2022/10/26 03:37:43;;;;;;;19.33;12.05;;;9.40;99.90;;;;;;5056125;28;20124;-81
2022/10/26 03:40:09;;;;;;;18.88;12.05;;;9.30;99.90;;;;;;5057727;28;20049;-80
2022/10/26 03:42:38;;;;;;;17.20;11.38;;;9.40;99.90;;;;;;5055118;28;20768;-82
2022/10/26 03:45:05;;;;;;;22.98;13.48;;;9.40;99.90;;;;;;5057679;28;20105;-82
2022/10/26 03:47:31;;;;;;;18.42;12.68;;;9.50;99.90;;;;;;5052352;28;20052;-81
2022/10/26 03:49:56;;;;;;;16.17;12.23;;;9.50;99.90;;;;;;5040346;28;20060;-83
2022/10/26 03:52:23;;;;;;;18.23;12.35;;;9.40;99.90;;;;;;5057874;28;20052;-83
2022/10/26 03:54:50;;;;;;;18.55;13.18;;;9.40;99.90;;;;;;5061219;28;20060;-82
2022/10/26 03:57:16;;;;;;;17.40;13.13;;;9.40;99.90;;;;;;5062147;28;20139;-81
2022/10/26 03:59:41;;;;;;;17.35;11.80;;;9.40;99.90;;;;;;5061877;28;21210;-83
2022/10/26 04:02:07;;;;;;;15.93;11.68;;;9.40;99.90;;;;;;5061682;28;20045;-81
2022/10/26 04:04:33;;;;;;;16.05;12.38;;;9.40;99.90;;;;;;5061242;28;20055;-81
2022/10/26 04:06:58;;;;;;;16.58;12.18;;;9.40;99.90;;;;;;5060325;28;20054;-80
2022/10/26 04:09:24;;;;;;;17.27;11.35;;;9.30;99.90;;;;;;5059134;28;20642;-79
2022/10/26 04:11:50;;;;;;;20.95;13.73;;;9.30;99.90;;;;;;5060183;28;20048;-82
2022/10/26 04:14:15;;;;;;;19.33;13.23;;;9.30;99.90;;;;;;5059841;28;20048;-83
2022/10/26 04:16:41;;;;;;;17.27;13.73;;;9.30;99.90;;;;;;5061259;28;20155;-81
2022/10/26 04:19:07;;;;;;;18.55;13.30;;;9.40;99.90;;;;;;5060075;28;20075;-82
2022/10/26 04:21:34;;;;;;;20.13;13.70;;;9.30;99.90;;;;;;5056338;28;20086;-82
2022/10/26 04:24:00;;;;;;;15.45;13.07;;;9.40;99.90;;;;;;5062436;28;20052;-80
2022/10/26 04:26:26;;;;;;;22.08;13.68;;;9.30;99.90;;;;;;5059628;28;20062;-82
2022/10/26 04:28:51;;;;;;;17.08;12.70;;;9.30;99.90;;;;;;5060936;28;21382;-83
2022/10/26 04:31:17;;;;;;;17.52;12.93;;;9.40;99.90;;;;;;5060072;28;20123;-81
2022/10/26 04:33:42;;;;;;;19.38;13.95;;;9.40;99.90;;;;;;5061138;28;20058;-83
2022/10/26 04:36:08;;;;;;;18.98;13.85;;;9.40;99.90;;;;;;5061797;28;20054;-80
2022/10/26 04:38:34;;;;;;;21.30;12.43;;;9.40;99.90;;;;;;5059652;28;20155;-79
2022/10/26 04:40:59;;;;;;;18.20;13.18;;;9.40;99.90;;;;;;5061315;28;20094;-80
2022/10/26 04:43:25;;;;;;;18.08;13.63;;;9.40;99.90;;;;;;5059205;28;20052;-83
2022/10/26 04:45:55;;;;;;;20.25;13.98;;;9.50;99.90;;;;;;5058401;28;20057;-83
2022/10/26 04:48:21;;;;;;;21.85;12.35;;;9.50;99.90;;;;;;5062369;28;20072;-80
2022/10/26 04:50:47;;;;;;;18.30;13.35;;;9.50;99.90;;;;;;5059170;28;20269;-87
2022/10/26 04:53:13;;;;;;;18.58;13.52;;;9.50;99.90;;;;;;5058564;28;20056;-81
2022/10/26 04:55:39;;;;;;;17.73;12.48;;;9.50;99.90;;;;;;5059775;28;20067;-82
2022/10/26 04:58:05;;;;;;;18.50;12.30;;;9.60;99.90;;;;;;5057444;28;20481;-83
2022/10/26 05:00:31;;;;;;;22.80;14.38;;;9.60;99.90;;;;;;5056846;28;20040;-79
2022/10/26 05:03:05;;;;;;;18.25;13.75;;;9.60;99.90;;;;;;5056970;28;20048;-83
2022/10/26 05:05:32;;;;;;;17.40;12.98;;;9.60;99.90;;;;;;5055341;28;20052;-81
2022/10/26 05:07:58;;;;;;;18.60;13.18;;;9.70;99.90;;;;;;5056982;28;20052;-82
2022/10/26 05:10:25;;;;;;;15.38;13.05;;;9.70;99.90;;;;;;5054881;28;20056;-81
2022/10/26 05:12:55;;;;;;;20.25;14.20;;;9.70;99.90;;;;;;5057610;28;20036;-82
2022/10/26 05:15:21;;;;;;;18.70;13.35;;;9.70;99.90;;;;;;5057183;28;20143;-83
2022/10/26 05:18:04;;;;;;;22.25;14.27;;;9.70;99.90;;;;;;5057534;28;20050;-82
2022/10/26 05:20:31;;;;;;;22.27;12.90;;;9.70;99.90;;;;;;5056204;28;20050;-79
2022/10/26 05:22:59;;;;;;;18.55;12.80;;;9.80;99.90;;;;;;5056202;28;20043;-83
2022/10/26 05:25:26;;;;;;;17.80;12.82;;;9.80;99.90;;;;;;5056047;28;20127;-83
2022/10/26 05:28:00;;;;;;;20.63;13.52;;;9.70;99.90;;;;;;5054788;28;20122;-84
2022/10/26 05:30:27;;;;;;;19.65;13.85;;;9.80;99.90;;;;;;5055239;28;20044;-82
2022/10/26 05:33:03;;;;;;;20.17;13.60;;;9.80;99.90;;;;;;5055397;28;20846;-85
2022/10/26 05:35:29;;;;;;;19.88;13.85;;;9.90;99.90;;;;;;5054729;28;20589;-79
2022/10/26 05:37:55;;;;;;;20.95;14.10;;;9.90;99.90;;;;;;5054993;28;20067;-84
2022/10/26 05:40:21;;;;;;;19.25;14.32;;;9.90;99.90;;;;;;5055820;28;20040;-79
2022/10/26 05:42:47;;;;;;;18.77;13.25;;;10.00;99.90;;;;;;5060494;28;20750;-78
2022/10/26 05:45:13;;;;;;;19.63;13.73;;;9.90;99.90;;;;;;5057563;28;20040;-83
2022/10/26 05:47:40;;;;;;;19.23;14.32;;;10.00;99.90;;;;;;5058086;28;20063;-83
2022/10/26 05:50:07;;;;;;;19.83;14.77;;;10.00;99.90;;;;;;5057684;28;20048;-83
2022/10/26 05:52:39;;;;;;;18.40;12.80;;;10.00;99.90;;;;;;5057277;28;20048;-81
2022/10/26 05:55:09;;;;;;;20.98;13.13;;;10.00;99.90;;;;;;5058728;28;20083;-82
2022/10/26 05:57:36;;;;;;;19.40;12.20;;;10.00;99.90;;;;;;5056202;28;20056;-82
2022/10/26 06:00:09;;;;;;;20.65;13.48;;;10.00;99.90;;;;;;5055665;28;20577;-82
2022/10/26 06:02:38;;;;;;;;;;;10.00;99.90;;;;;;5072426;28;20052;-82
2022/10/26 06:05:04;;;;;;;22.42;13.13;;;10.00;99.90;;;;;;5039189;28;19931;-79
2022/10/26 06:07:32;;;;;;;18.63;13.95;;;10.00;99.90;;;;;;5059395;28;20044;-78
2022/10/26 06:09:58;;;;;;;18.75;13.93;;;10.10;99.90;;;;;;5061681;28;20209;-79
2022/10/26 06:12:25;;;;;;;19.80;12.70;;;10.10;99.90;;;;;;5057523;28;20052;-79
2022/10/26 06:14:51;;;;;;;19.08;12.95;;;10.10;99.90;;;;;;5058549;28;20048;-80
2022/10/26 06:17:30;;;;;;;19.45;12.15;;;10.10;99.90;;;;;;5054947;28;20094;-80
2022/10/26 06:20:20;;;;;;;20.55;12.95;;;10.10;99.90;;;;;;5056391;28;20048;-82
2022/10/26 06:22:51;;;;;;;12.60;10.43;;;10.20;99.90;;;;;;5054039;28;20090;-81
2022/10/26 06:25:39;;;;;;;19.10;12.68;;;10.20;99.90;;;;;;5057097;28;20055;-82
2022/10/26 06:28:44;;;;;;;17.63;13.38;;;10.20;99.90;;;;;;5057080;28;20056;-85
2022/10/26 06:31:12;;;;;;;16.10;11.35;;;10.20;99.90;;;;;;5014142;28;20080;-84
2022/10/26 06:33:38;;;;;;;17.90;11.70;;;10.30;99.90;;;;;;4999727;28;20073;-78
2022/10/26 06:36:16;;;;;;;14.15;10.68;;;10.30;99.90;;;;;;5034989;28;20143;-78
2022/10/26 06:38:43;;;;;;;21.55;12.32;;;10.40;99.90;;;;;;5055285;28;20040;-83
2022/10/26 06:41:14;;;;;;;21.05;12.40;;;10.40;99.90;;;;;;5058559;28;20062;-79
2022/10/26 06:43:40;;;;;;;15.00;10.50;;;10.40;99.90;;;;;;5057438;28;20051;-74
2022/10/26 06:46:28;;;;;;;15.40;10.68;;;10.40;99.90;;;;;;5079567;27;20529;-83
2022/10/26 06:49:18;;;;;;;22.42;11.20;;;10.50;99.90;;;;;;5061353;28;20341;-79
2022/10/26 06:52:10;;;;;;;16.63;11.55;;;10.50;99.90;;;;;;5060798;28;20676;-82
2022/10/26 06:54:49;;;;;;;15.85;10.13;;;10.50;99.90;;;;;;5059394;28;20052;-82
2022/10/26 06:57:16;;;;;;;16.27;10.10;;;10.60;99.90;;;;;;5063919;28;20084;-83
2022/10/26 06:59:48;;;;;;;11.45;9.70;;;10.60;99.90;;;;;;5057395;28;20052;-82
2022/10/26 07:02:13;;;;;;;15.57;10.43;;;10.60;99.90;;;;;;5057091;28;20142;-80
2022/10/26 07:04:40;;;;;;;12.07;8.68;;;10.60;99.90;;;;;;5067890;28;20115;-83
2022/10/26 07:07:08;;;;;;;14.23;10.23;;;10.70;99.90;;;;;;5061352;28;20496;-81
2022/10/26 07:09:34;;;;;;;12.18;8.23;;;10.70;99.90;;;;;;5058345;28;20124;-80
2022/10/26 07:12:00;;;;;;;13.55;9.05;;;10.80;99.90;;;;;;5066167;28;20066;-81
2022/10/26 07:14:25;;;;;;;14.35;9.43;;;10.80;99.90;;;;;;5067452;28;20810;-82
2022/10/26 07:16:52;;;;;;;12.45;9.45;;;10.80;99.90;;;;;;5060750;28;20045;-82
2022/10/26 07:19:17;;;;;;;14.73;8.35;;;10.90;99.90;;;;;;5063988;28;20060;-80
2022/10/26 07:21:43;;;;;;;15.18;8.27;;;10.90;99.90;;;;;;5068747;28;20044;-81
2022/10/26 07:24:09;;;;;;;13.85;8.82;;;11.00;99.90;;;;;;5064215;28;20044;-82
2022/10/26 07:26:34;;;;;;;13.70;7.88;;;11.10;99.90;;;;;;5054774;28;20045;-82
2022/10/26 07:29:00;;;;;;;13.13;7.82;;;11.10;99.90;;;;;;5068354;28;20053;-82
2022/10/26 07:31:26;;;;;;;10.38;7.45;;;11.20;99.90;;;;;;5074400;28;20377;-80
2022/10/26 07:33:55;;;;;;;10.02;7.03;;;11.30;99.90;;;;;;5068569;28;20132;-83
2022/10/26 07:36:21;;;;;;;9.80;6.90;;;11.30;99.90;;;;;;5066427;28;20161;-82
2022/10/26 07:38:49;;;;;;;11.27;7.32;;;11.40;99.90;;;;;;5074459;28;20941;-81
2022/10/26 07:41:15;;;;;;;9.13;6.88;;;11.50;99.90;;;;;;5068030;28;20064;-81
2022/10/26 07:43:44;;;;;;;10.32;7.72;;;11.60;99.90;;;;;;5056071;28;20137;-81
2022/10/26 07:46:10;;;;;;;11.25;7.28;;;11.70;99.90;;;;;;5068316;28;20462;-83
2022/10/26 07:48:35;;;;;;;11.30;6.80;;;11.70;99.90;;;;;;5060172;28;20492;-80
2022/10/26 07:51:01;;;;;;;9.70;5.93;;;11.80;99.90;;;;;;5066402;28;20554;-82
2022/10/26 07:53:27;;;;;;;10.85;5.93;;;11.90;99.90;;;;;;5069142;28;20052;-82
2022/10/26 07:55:54;;;;;;;10.77;7.20;;;12.00;99.90;;;;;;5072923;28;20051;-82
2022/10/26 07:58:22;;;;;;;11.75;6.30;;;12.10;99.90;;;;;;5050502;28;20163;-82
2022/10/26 08:00:49;;;;;;;9.80;7.20;;;12.20;99.90;;;;;;5052649;28;20110;-83
2022/10/26 08:03:16;;;;;;;8.63;6.55;;;12.30;99.90;;;;;;5052304;28;20048;-79
2022/10/26 08:05:41;;;;;;;6.15;5.53;;;12.40;99.90;;;;;;5050759;28;20041;-82
2022/10/26 08:08:07;;;;;;;12.60;6.82;;;12.40;99.90;;;;;;5041897;28;20048;-84
2022/10/26 08:10:33;;;;;;;10.20;6.85;;;12.50;99.90;;;;;;5055184;28;20052;-82
2022/10/26 08:12:59;;;;;;;12.18;6.78;;;12.40;99.90;;;;;;5051642;28;20470;-82
2022/10/26 08:15:24;;;;;;;6.93;5.00;;;12.70;99.90;;;;;;5057955;28;20143;-85
2022/10/26 08:17:50;;;;;;;8.57;6.43;;;12.80;99.90;;;;;;5051221;28;20049;-82
2022/10/26 08:20:16;;;;;;;10.00;6.07;;;13.00;99.90;;;;;;5029314;28;20051;-82
2022/10/26 08:22:41;;;;;;;10.35;6.13;;;13.10;99.90;;;;;;5050894;28;20102;-82
2022/10/26 08:25:07;;;;;;;11.35;5.95;;;13.20;99.90;;;;;;5043656;28;20055;-83
2022/10/26 08:27:33;;;;;;;7.30;5.70;;;13.40;99.90;;;;;;5043585;28;20902;-80
2022/10/26 08:29:59;;;;;;;7.47;5.75;;;13.40;99.90;;;;;;5056985;28;20144;-82
2022/10/26 08:32:24;;;;;;;7.22;5.35;;;13.60;99.90;;;;;;5040714;28;20135;-80
2022/10/26 08:34:50;;;;;;;6.55;4.55;;;13.60;99.90;;;;;;5042360;28;20663;-82
2022/10/26 08:37:15;;;;;;;7.43;5.38;;;13.80;99.90;;;;;;5050982;28;20045;-82
2022/10/26 08:39:41;;;;;;;8.38;4.70;;;13.80;99.90;;;;;;5043472;28;21021;-82
2022/10/26 08:42:22;;;;;;;5.70;4.32;;;13.80;99.90;;;;;;5050254;28;20778;-81
2022/10/26 08:44:57;;;;;;;9.02;4.10;;;13.80;99.90;;;;;;5050115;28;20142;-83
2022/10/26 08:47:29;;;;;;;6.45;4.03;;;13.90;99.90;;;;;;5049509;28;20107;-85
2022/10/26 08:50:13;;;;;;;8.73;4.30;;;14.00;99.90;;;;;;5042799;28;20049;-82
2022/10/26 08:53:07;;;;;;;6.22;4.53;;;14.10;99.90;;;;;;5043353;28;20048;-82
2022/10/26 08:56:13;;;;;;;4.72;3.55;;;14.20;99.90;;;;;;5040134;28;20041;-82
2022/10/26 08:58:51;;;;;;;7.55;3.90;;;14.30;99.90;;;;;;5006735;28;20072;-79
2022/10/26 09:01:17;;;;;;;5.85;3.33;;;14.60;99.90;;;;;;5042308;28;20044;-81
2022/10/26 09:03:43;;;;;;;5.03;3.88;;;14.50;99.90;;;;;;5040618;28;20232;-79
2022/10/26 09:06:34;;;;;;;5.15;3.63;;;14.60;99.90;;;;;;5045066;28;20842;-81
2022/10/26 09:09:02;;;;;;;7.18;2.80;;;14.70;99.90;;;;;;5041131;28;20442;-81
2022/10/26 09:12:02;;;;;;;5.38;3.25;;;14.80;99.90;;;;;;5041178;28;20049;-83
2022/10/26 09:14:30;;;;;;;5.68;2.75;;;14.90;99.90;;;;;;5044049;28;20487;-82
2022/10/26 09:17:01;;;;;;;5.47;3.58;;;15.10;99.90;;;;;;5054477;28;20400;-82
2022/10/26 09:20:05;;;;;;;4.63;2.40;;;15.10;99.90;;;;;;5044008;28;20095;-82
2022/10/26 09:23:01;;;;;;;5.32;3.03;;;15.20;99.90;;;;;;5055000;28;20049;-82
2022/10/26 09:25:37;;;;;;;6.95;3.45;;;15.30;99.90;;;;;;5043209;28;20072;-82
2022/10/26 09:28:04;;;;;;;3.35;2.67;;;15.30;99.90;;;;;;5052953;28;20055;-81
2022/10/26 09:30:31;;;;;;;7.80;3.70;;;15.40;99.90;;;;;;5046351;28;20583;-80
2022/10/26 09:33:13;;;;;;;3.75;2.53;;;15.50;99.90;;;;;;5047327;28;20170;-79
2022/10/26 09:35:45;;;;;;;5.35;2.65;;;15.60;99.90;;;;;;5039259;28;20056;-82
2022/10/26 09:38:28;;;;;;;4.07;2.67;;;15.70;99.90;;;;;;5047423;28;20053;-83
2022/10/26 09:41:00;;;;;;;4.07;3.00;;;15.80;99.90;;;;;;5040880;28;20048;-80
2022/10/26 09:43:46;;;;;;;6.28;3.08;;;15.90;99.90;;;;;;5040851;28;20683;-82
2022/10/26 09:46:19;;;;;;;5.80;2.75;;;16.00;99.90;;;;;;5056333;28;20060;-82
2022/10/26 09:48:52;;;;;;;6.25;3.00;;;16.00;99.90;;;;;;5054579;28;20408;-82
2022/10/26 09:51:18;;;;;;;4.50;2.40;;;16.10;99.90;;;;;;5044718;28;20041;-83
2022/10/26 09:53:45;;;;;;;4.82;2.65;;;16.20;99.90;;;;;;5041173;28;20045;-83
2022/10/26 09:56:12;;;;;;;6.18;2.80;;;16.20;99.90;;;;;;5039849;28;20060;-81
2022/10/26 09:59:09;;;;;;;4.85;2.55;;;16.30;99.90;;;;;;5040538;28;20045;-83
2022/10/26 10:01:35;;;;;;;3.80;2.90;;;16.30;99.90;;;;;;5040694;28;20212;-82
2022/10/26 10:04:24;;;;;;;6.65;3.33;;;16.30;99.90;;;;;;5045671;28;20052;-83
2022/10/26 10:07:02;;;;;;;5.45;2.72;;;16.50;99.90;;;;;;5039597;28;20057;-81
2022/10/26 10:09:28;;;;;;;5.88;2.63;;;16.50;99.90;;;;;;5039924;28;20057;-83
2022/10/26 10:11:56;;;;;;;3.72;2.58;;;16.60;99.90;;;;;;5055197;28;20074;-80
2022/10/26 10:14:32;;;;;;;6.90;2.47;;;16.60;99.90;;;;;;5048429;28;20060;-81
2022/10/26 10:17:07;;;;;;;2.45;2.03;;;16.80;99.90;;;;;;5040839;28;20060;-82
2022/10/26 10:19:37;;;;;;;4.15;2.88;;;16.90;99.90;;;;;;5056666;28;20052;-83
2022/10/26 10:22:17;;;;;;;3.20;2.17;;;17.00;99.90;;;;;;5055679;28;20053;-82
2022/10/26 10:24:58;;;;;;;5.57;2.30;;;17.20;99.90;;;;;;5055333;28;20041;-80
2022/10/26 10:27:25;;;;;;;5.25;2.65;;;17.40;99.90;;;;;;5051588;28;20049;-83
2022/10/26 10:29:55;;;;;;;4.47;2.10;;;17.40;99.90;;;;;;5040217;28;20061;-82
2022/10/26 10:32:26;;;;;;;3.50;2.28;;;17.60;99.90;;;;;;5055832;28;20087;-83
2022/10/26 10:34:55;;;;;;;7.00;2.22;;;17.60;99.90;;;;;;5043763;28;20144;-80
2022/10/26 10:37:34;;;;;;;3.53;2.33;;;17.70;99.90;;;;;;5047472;28;20159;-82
2022/10/26 10:40:21;;;;;;;9.07;2.70;;;17.80;99.90;;;;;;5042632;28;20596;-82
2022/10/26 10:42:49;;;;;;;4.15;2.92;;;17.80;99.90;;;;;;5041041;28;20045;-82
2022/10/26 10:45:21;;;;;;;2.28;2.08;;;17.90;99.90;;;;;;5055043;28;20123;-82
2022/10/26 10:48:12;;;;;;;4.40;2.85;;;18.10;99.90;;;;;;5050945;28;20143;-84
2022/10/26 10:50:50;;;;;;;3.65;2.60;;;18.10;99.90;;;;;;5041778;28;20048;-83
2022/10/26 10:53:23;;;;;;;4.72;2.63;;;18.10;99.90;;;;;;5041579;28;20970;-83
2022/10/26 10:56:19;;;;;;;5.72;3.63;;;18.10;99.90;;;;;;5046304;28;20049;-82
2022/10/26 10:59:07;;;;;;;3.17;2.63;;;18.10;99.90;;;;;;5044771;28;20189;-83
2022/10/26 11:01:47;;;;;;;4.35;2.72;;;18.00;99.90;;;;;;5050654;28;20049;-80
2022/10/26 11:04:36;;;;;;;3.97;2.63;;;18.10;99.90;;;;;;5048466;28;20092;-82
2022/10/26 11:07:05;;;;;;;5.88;2.85;;;18.10;99.90;;;;;;5047089;28;20064;-82
2022/10/26 11:09:35;;;;;;;4.00;2.42;;;18.20;99.90;;;;;;5047854;28;20052;-81
2022/10/26 11:12:08;;;;;;;4.35;2.40;;;18.30;99.90;;;;;;5041628;28;20124;-83
2022/10/26 11:14:47;;;;;;;3.88;2.33;;;18.40;99.90;;;;;;5049945;28;20052;-79
2022/10/26 11:17:21;;;;;;;7.15;3.30;;;18.50;99.90;;;;;;5046368;28;20832;-82
2022/10/26 11:20:12;;;;;;;4.65;2.75;;;18.50;99.90;;;;;;5047434;28;20775;-83
2022/10/26 11:23:10;;;;;;;5.88;3.22;;;18.50;99.90;;;;;;5046445;28;20469;-83
2022/10/26 11:26:12;;;;;;;7.70;3.33;;;18.60;99.90;;;;;;5041976;28;20713;-82
2022/10/26 11:28:49;;;;;;;11.55;3.45;;;18.70;99.90;;;;;;5052005;28;20053;-83
2022/10/26 11:31:24;;;;;;;6.55;2.33;;;18.80;99.90;;;;;;5040757;28;20115;-82
2022/10/26 11:34:09;;;;;;;4.15;2.17;;;18.80;99.90;;;;;;5044648;28;20204;-80
2022/10/26 11:36:37;;;;;;;7.68;2.53;;;18.90;99.90;;;;;;5048895;28;20536;-83
2022/10/26 11:39:27;;;;;;;6.18;2.65;;;18.90;99.90;;;;;;5048444;28;20140;-84
2022/10/26 11:42:05;;;;;;;4.50;2.45;;;18.90;99.90;;;;;;5051005;28;20917;-82
2022/10/26 11:44:39;;;;;;;2.25;2.05;;;18.80;99.90;;;;;;5045104;28;20037;-83
2022/10/26 11:47:43;;;;;;;5.25;2.28;;;18.70;99.90;;;;;;5053178;28;20143;-83
2022/10/26 11:50:33;;;;;;;7.85;2.60;;;18.70;99.90;;;;;;5003474;28;20099;-83
2022/10/26 11:53:13;;;;;;;3.42;2.22;;;18.60;99.90;;;;;;5052428;28;20036;-82
2022/10/26 11:55:40;;;;;;;4.00;2.78;;;18.70;99.90;;;;;;5048136;28;20148;-81
2022/10/26 11:58:09;;;;;;;5.25;2.92;;;18.70;99.90;;;;;;5066291;28;20061;-82
2022/10/26 12:00:46;;;;;;;6.20;3.03;;;18.80;99.90;;;;;;5051673;28;20055;-83
2022/10/26 12:03:22;;;;;;;3.50;2.58;;;18.90;99.90;;;;;;5042445;28;20049;-81
2022/10/26 12:05:52;;;;;;;2.38;2.05;;;18.90;99.90;;;;;;5044948;28;20037;-82
2022/10/26 12:08:29;;;;;;;4.75;2.22;;;18.90;99.90;;;;;;5056606;28;20060;-83
2022/10/26 12:11:06;;;;;;;4.82;2.35;;;18.90;99.90;;;;;;5041389;28;20076;-83
2022/10/26 12:13:41;;;;;;;5.40;2.80;;;18.90;99.90;;;;;;5039623;28;20548;-80
2022/10/26 12:16:20;;;;;;;6.20;2.95;;;18.90;99.90;;;;;;5046511;28;20547;-83
2022/10/26 12:19:01;;;;;;;3.78;2.70;;;18.90;99.90;;;;;;5054633;28;20044;-83
2022/10/26 12:21:29;;;;;;;5.47;2.78;;;18.90;99.90;;;;;;5044968;28;20045;-83
2022/10/26 12:24:00;;;;;;;4.20;2.80;;;18.90;99.90;;;;;;5050533;28;20072;-82
2022/10/26 12:26:26;;;;;;;5.00;2.85;;;18.90;99.90;;;;;;5053767;28;20075;-83
2022/10/26 12:29:01;;;;;;;4.10;2.83;;;18.90;99.90;;;;;;5049021;28;20079;-82
2022/10/26 12:31:35;;;;;;;4.15;2.20;;;19.00;99.90;;;;;;5044466;28;20049;-83
2022/10/26 12:34:03;;;;;;;5.30;2.78;;;19.10;99.90;;;;;;5041545;28;20141;-84
2022/10/26 12:36:48;;;;;;;5.53;2.65;;;19.20;99.90;;;;;;5023994;28;20048;-83
2022/10/26 12:39:30;;;;;;;3.25;2.60;;;19.20;99.90;;;;;;5041653;28;20079;-80
2022/10/26 12:42:17;;;;;;;6.13;3.07;;;19.30;99.90;;;;;;5041871;28;20085;-81
2022/10/26 12:44:46;;;;;;;2.88;2.45;;;19.30;99.90;;;;;;5039741;28;20049;-82
2022/10/26 12:47:44;;;;;;;3.65;2.75;;;19.30;99.90;;;;;;5049029;28;20063;-83
2022/10/26 12:50:09;;;;;;;3.97;2.42;;;19.20;99.90;;;;;;5007913;28;20048;-81
2022/10/26 12:52:55;;;;;;;6.47;2.60;;;19.20;99.90;;;;;;5055905;28;20052;-83
2022/10/26 12:55:46;;;;;;;4.55;2.72;;;19.20;99.90;;;;;;5056577;28;20117;-81
2022/10/26 12:58:20;;;;;;;4.07;2.67;;;19.20;99.90;;;;;;5043743;28;20048;-83
2022/10/26 13:00:56;;;;;;;5.28;2.63;;;19.10;99.90;;;;;;5040691;28;20449;-82
2022/10/26 13:03:32;;;;;;;7.10;2.75;;;19.00;99.90;;;;;;5043203;28;20096;-83
2022/10/26 13:06:13;;;;;;;5.80;2.55;;;19.00;99.90;;;;;;5050244;28;20093;-85
2022/10/26 13:08:51;;;;;;;4.20;2.65;;;19.10;99.90;;;;;;5054624;28;20127;-83